Time;durP1;ratioP1;P1;durP2;ratioP2;P2;SDS_P1;SDS_P2;PMS_P1;PMS_P2;Temp;Humidity;BMP_temperature;BMP_pressure;BME280_temperature;BME280_humidity;BME280_pressure;Samples;Min_cycle;Max_cycle;Signal;HPM_P1;HPM_P2
2021/10/17 00:02:06;;;;;;;3.15;0.60;;;25.30;36.80;;;;;;5047803;28;20124;-48
2021/10/17 00:04:33;;;;;;;3.88;0.65;;;25.30;36.70;;;;;;5048131;28;20041;-49
2021/10/17 00:07:00;;;;;;;2.03;0.80;;;25.40;36.80;;;;;;5048046;28;20037;-49
2021/10/17 00:09:28;;;;;;;0.50;0.40;;;25.40;36.80;;;;;;5047970;28;20045;-46
2021/10/17 00:11:57;;;;;;;5.25;0.63;;;25.40;36.70;;;;;;5048866;28;20048;-48
2021/10/17 00:14:24;;;;;;;3.83;0.47;;;25.40;36.70;;;;;;5047829;28;20033;-44
2021/10/17 00:16:51;;;;;;;2.50;0.60;;;25.50;36.70;;;;;;5047538;28;20038;-48
2021/10/17 00:19:18;;;;;;;4.07;1.10;;;25.40;36.70;;;;;;5047856;28;20041;-46
2021/10/17 00:21:45;;;;;;;2.03;0.55;;;25.50;36.70;;;;;;5030355;28;20037;-46
2021/10/17 00:24:12;;;;;;;1.50;1.25;;;25.40;36.70;;;;;;5049034;28;20037;-48
2021/10/17 00:26:40;;;;;;;1.50;0.70;;;25.40;36.70;;;;;;5046941;28;20044;-49
2021/10/17 00:29:08;;;;;;;2.33;0.52;;;25.40;36.70;;;;;;5047574;28;20132;-48
2021/10/17 00:31:35;;;;;;;2.22;0.75;;;25.40;36.70;;;;;;5047381;28;20053;-47
2021/10/17 00:34:03;;;;;;;2.50;0.55;;;25.40;36.70;;;;;;5032361;28;20044;-47
2021/10/17 00:36:32;;;;;;;1.23;0.77;;;25.50;36.80;;;;;;5032256;28;20075;-50
2021/10/17 00:38:59;;;;;;;2.92;0.85;;;25.40;36.80;;;;;;5048284;28;20041;-48
2021/10/17 00:41:30;;;;;;;2.97;0.68;;;25.50;36.90;;;;;;5049952;28;20079;-47
2021/10/17 00:43:57;;;;;;;4.10;1.75;;;25.50;36.90;;;;;;5047454;28;20048;-50
2021/10/17 00:46:26;;;;;;;2.17;0.70;;;25.50;36.90;;;;;;5047182;28;20088;-53
2021/10/17 00:48:53;;;;;;;1.15;0.43;;;25.50;36.90;;;;;;5047633;28;20421;-49
2021/10/17 00:51:20;;;;;;;1.58;1.08;;;25.50;36.90;;;;;;5048554;28;20539;-49
2021/10/17 00:53:47;;;;;;;1.38;0.70;;;25.50;37.00;;;;;;5047826;28;20045;-46
2021/10/17 00:56:15;;;;;;;0.90;0.38;;;25.50;37.00;;;;;;5048915;28;20487;-46
2021/10/17 00:58:42;;;;;;;2.10;0.73;;;25.50;37.10;;;;;;5046978;28;20049;-50
2021/10/17 01:01:09;;;;;;;2.05;0.60;;;25.50;37.10;;;;;;5031874;28;20064;-46
2021/10/17 01:03:37;;;;;;;2.70;0.70;;;25.50;37.80;;;;;;5046711;28;20053;-45
2021/10/17 01:06:09;;;;;;;2.90;0.68;;;25.50;37.20;;;;;;5048879;28;20048;-46
2021/10/17 01:08:36;;;;;;;1.85;0.57;;;25.50;37.30;;;;;;5046694;28;20049;-45
2021/10/17 01:11:03;;;;;;;1.40;0.75;;;25.50;37.40;;;;;;5049607;28;20067;-47
2021/10/17 01:13:30;;;;;;;2.15;0.60;;;25.50;37.40;;;;;;5045480;28;20037;-47
2021/10/17 01:15:58;;;;;;;2.63;0.55;;;25.40;37.40;;;;;;5031866;28;20040;-48
2021/10/17 01:18:37;;;;;;;0.60;0.45;;;25.50;37.40;;;;;;5045688;28;20075;-46
2021/10/17 01:21:12;;;;;;;1.98;0.65;;;25.50;37.50;;;;;;5049291;28;20045;-46
2021/10/17 01:23:40;;;;;;;3.78;1.30;;;25.50;37.50;;;;;;5046394;28;20072;-46
2021/10/17 01:26:07;;;;;;;1.45;0.73;;;25.50;37.50;;;;;;5048990;28;20056;-46
2021/10/17 01:28:34;;;;;;;1.63;0.60;;;25.50;37.50;;;;;;5045349;28;20070;-46
2021/10/17 01:31:01;;;;;;;2.40;0.77;;;25.50;37.50;;;;;;5046563;28;20822;-49
2021/10/17 01:33:28;;;;;;;3.08;0.85;;;25.50;37.50;;;;;;5046452;28;20076;-48
2021/10/17 01:35:56;;;;;;;3.50;1.10;;;25.50;37.40;;;;;;5050440;28;20049;-50
2021/10/17 01:38:24;;;;;;;1.38;0.85;;;25.50;37.40;;;;;;5031324;28;20132;-45
2021/10/17 01:40:51;;;;;;;2.35;0.77;;;25.50;37.40;;;;;;5048229;28;20040;-45
2021/10/17 01:43:18;;;;;;;2.28;1.25;;;25.50;37.40;;;;;;5030113;28;20082;-49
2021/10/17 01:46:01;;;;;;;2.35;0.80;;;25.50;37.40;;;;;;5022349;28;20055;-45
2021/10/17 01:48:30;;;;;;;2.00;0.55;;;25.50;37.40;;;;;;5048556;28;20033;-46
2021/10/17 01:50:59;;;;;;;1.10;0.52;;;25.50;37.40;;;;;;5047573;28;20087;-45
2021/10/17 01:53:29;;;;;;;2.10;0.50;;;25.50;37.40;;;;;;5048405;28;20041;-47
2021/10/17 01:55:58;;;;;;;1.02;0.55;;;25.50;37.30;;;;;;5046026;28;20121;-46
2021/10/17 01:58:26;;;;;;;0.68;0.43;;;25.50;37.30;;;;;;5044488;28;20056;-46
2021/10/17 02:00:54;;;;;;;1.20;0.73;;;25.50;37.30;;;;;;5033671;28;20120;-46
2021/10/17 02:03:22;;;;;;;1.80;0.45;;;25.50;37.30;;;;;;5032249;28;20083;-48
2021/10/17 02:05:51;;;;;;;1.85;0.50;;;25.50;37.30;;;;;;5049792;28;20036;-47
2021/10/17 02:08:18;;;;;;;1.98;0.68;;;25.50;37.40;;;;;;5048351;28;20126;-48
2021/10/17 02:10:47;;;;;;;2.17;0.60;;;25.60;37.40;;;;;;5045856;28;20048;-46
2021/10/17 02:13:16;;;;;;;2.80;0.77;;;25.60;37.40;;;;;;5045901;28;20044;-46
2021/10/17 02:15:43;;;;;;;0.50;0.50;;;25.60;37.40;;;;;;5048846;28;20040;-47
2021/10/17 02:18:11;;;;;;;0.98;0.50;;;25.60;37.40;;;;;;5050327;28;20140;-45
2021/10/17 02:20:44;;;;;;;1.92;0.47;;;25.60;37.40;;;;;;5046906;28;20048;-46
2021/10/17 02:23:12;;;;;;;0.90;0.28;;;25.60;37.30;;;;;;5045621;28;20095;-47
2021/10/17 02:25:40;;;;;;;2.65;1.00;;;25.60;37.30;;;;;;5047516;28;20112;-48
2021/10/17 02:28:08;;;;;;;1.90;0.60;;;25.60;37.30;;;;;;5045784;28;20072;-52
2021/10/17 02:30:41;;;;;;;0.87;0.47;;;25.60;37.30;;;;;;5047285;28;20044;-47
2021/10/17 02:33:28;;;;;;;5.05;0.43;;;25.60;37.30;;;;;;5048460;28;20049;-48
2021/10/17 02:35:55;;;;;;;3.60;0.65;;;25.60;37.30;;;;;;5045932;28;20417;-47
2021/10/17 02:38:22;;;;;;;1.30;0.63;;;25.60;37.30;;;;;;5031242;28;20048;-49
2021/10/17 02:40:49;;;;;;;1.08;0.50;;;25.60;37.20;;;;;;5046764;28;20477;-49
2021/10/17 02:43:18;;;;;;;0.60;0.47;;;25.60;37.30;;;;;;5029844;28;20509;-47
2021/10/17 02:45:47;;;;;;;1.25;0.40;;;25.60;37.30;;;;;;5028131;28;20044;-47
2021/10/17 02:48:15;;;;;;;1.40;0.43;;;25.60;37.30;;;;;;5047112;28;20041;-46
2021/10/17 02:50:42;;;;;;;1.33;0.30;;;25.60;37.20;;;;;;5033571;28;20041;-46
2021/10/17 02:53:09;;;;;;;0.80;0.47;;;25.60;37.30;;;;;;5045329;28;20120;-46
2021/10/17 02:55:37;;;;;;;0.70;0.30;;;25.60;37.30;;;;;;5044086;28;20037;-47
2021/10/17 02:58:07;;;;;;;3.38;1.35;;;25.60;37.30;;;;;;5029023;28;20057;-46
2021/10/17 03:00:36;;;;;;;4.60;1.35;;;25.60;37.30;;;;;;5051052;28;20072;-48
2021/10/17 03:03:04;;;;;;;1.70;0.52;;;25.60;37.40;;;;;;5033688;28;20048;-49
2021/10/17 03:05:37;;;;;;;1.15;0.63;;;25.50;37.30;;;;;;5048633;28;20099;-48
2021/10/17 03:08:06;;;;;;;1.08;0.32;;;25.50;37.30;;;;;;5041729;28;20044;-47
2021/10/17 03:10:33;;;;;;;1.42;0.50;;;25.50;37.30;;;;;;5043751;28;20056;-46
2021/10/17 03:13:00;;;;;;;1.52;0.73;;;25.50;37.30;;;;;;5045409;28;20043;-47
2021/10/17 03:15:27;;;;;;;1.35;0.45;;;25.50;37.30;;;;;;5033546;28;20191;-49
2021/10/17 03:17:56;;;;;;;0.98;0.30;;;25.50;37.30;;;;;;5045787;28;20489;-49
2021/10/17 03:20:24;;;;;;;3.53;0.85;;;25.60;37.40;;;;;;5046495;28;20434;-46
2021/10/17 03:22:51;;;;;;;1.60;0.47;;;25.50;37.40;;;;;;5046908;28;20033;-47
2021/10/17 03:25:18;;;;;;;1.05;0.47;;;25.50;37.40;;;;;;5043922;28;20041;-46
2021/10/17 03:27:49;;;;;;;6.93;0.30;;;25.50;37.40;;;;;;5027866;28;20119;-46
2021/10/17 03:30:24;;;;;;;2.28;1.27;;;25.50;37.40;;;;;;5051493;28;20041;-44
2021/10/17 03:32:52;;;;;;;1.85;0.52;;;25.50;37.40;;;;;;5053756;28;20045;-49
2021/10/17 03:35:20;;;;;;;1.85;0.47;;;25.50;37.40;;;;;;5050230;28;20049;-46
2021/10/17 03:37:47;;;;;;;1.35;0.35;;;25.50;37.50;;;;;;5048569;28;20527;-46
2021/10/17 03:40:14;;;;;;;2.80;0.60;;;25.50;37.50;;;;;;5030905;28;20720;-47
2021/10/17 03:42:41;;;;;;;0.88;0.47;;;25.40;37.50;;;;;;5053025;28;20049;-48
2021/10/17 03:45:09;;;;;;;0.80;0.80;;;25.50;37.60;;;;;;5053099;28;20037;-46
2021/10/17 03:47:38;;;;;;;0.47;0.43;;;25.40;37.60;;;;;;5050647;28;20805;-46
2021/10/17 03:50:07;;;;;;;2.72;0.43;;;25.40;37.60;;;;;;5049419;28;20048;-49
2021/10/17 03:52:36;;;;;;;0.80;0.40;;;25.40;37.70;;;;;;5033039;28;20656;-49
2021/10/17 03:55:04;;;;;;;3.75;0.75;;;25.40;37.60;;;;;;5026684;28;20041;-47
2021/10/17 03:57:31;;;;;;;0.60;0.40;;;25.40;37.70;;;;;;5051517;28;20056;-51
2021/10/17 03:59:58;;;;;;;1.35;0.82;;;25.40;37.70;;;;;;5054750;28;20049;-47
2021/10/17 04:02:27;;;;;;;1.60;0.30;;;25.40;37.70;;;;;;5050954;28;20127;-48
2021/10/17 04:04:54;;;;;;;2.10;0.40;;;25.40;37.70;;;;;;5031070;28;20037;-47
2021/10/17 04:07:27;;;;;;;2.67;0.30;;;25.30;37.60;;;;;;5025818;28;20517;-46
2021/10/17 04:09:56;;;;;;;0.85;0.50;;;25.30;37.70;;;;;;5048309;28;20120;-47
2021/10/17 04:12:23;;;;;;;1.95;0.40;;;25.30;37.70;;;;;;5043676;28;20584;-46
2021/10/17 04:14:58;;;;;;;0.73;0.30;;;25.30;37.80;;;;;;5038093;28;20045;-46
2021/10/17 04:17:26;;;;;;;0.40;0.40;;;25.30;37.80;;;;;;5047564;28;20049;-46
2021/10/17 04:19:53;;;;;;;0.50;0.50;;;25.30;37.90;;;;;;5047475;28;20145;-47
2021/10/17 04:22:21;;;;;;;1.05;0.40;;;25.30;37.80;;;;;;5046953;28;20052;-49
2021/10/17 04:24:48;;;;;;;1.80;0.68;;;25.30;37.80;;;;;;5047902;28;20524;-46
2021/10/17 04:27:17;;;;;;;0.73;0.70;;;25.30;37.90;;;;;;5048897;28;20048;-46
2021/10/17 04:29:44;;;;;;;1.85;0.80;;;25.30;37.80;;;;;;5047491;28;20132;-46
2021/10/17 04:32:11;;;;;;;2.50;0.30;;;25.30;37.80;;;;;;5046901;28;20052;-46
2021/10/17 04:34:39;;;;;;;0.73;0.40;;;25.30;37.80;;;;;;5046741;28;20057;-46
2021/10/17 04:37:07;;;;;;;2.22;0.57;;;25.30;37.80;;;;;;5045888;28;20052;-46
2021/10/17 04:39:35;;;;;;;1.40;0.40;;;25.30;37.80;;;;;;5046640;28;20116;-47
2021/10/17 04:42:02;;;;;;;2.08;0.40;;;25.30;37.80;;;;;;5029696;28;20052;-47
2021/10/17 04:44:32;;;;;;;2.53;1.15;;;25.30;37.80;;;;;;5046866;28;20040;-47
2021/10/17 04:46:59;;;;;;;7.45;1.13;;;25.30;37.90;;;;;;5046696;28;20384;-51
2021/10/17 04:49:26;;;;;;;1.08;0.80;;;25.20;37.80;;;;;;5028734;28;20473;-46
2021/10/17 04:51:53;;;;;;;0.30;0.30;;;25.20;37.80;;;;;;5046966;28;20047;-46
2021/10/17 04:54:22;;;;;;;1.02;0.20;;;25.20;37.90;;;;;;5047939;28;20142;-46
2021/10/17 04:56:49;;;;;;;1.02;0.50;;;25.20;37.90;;;;;;5030046;28;20041;-48
2021/10/17 04:59:20;;;;;;;0.30;0.30;;;25.20;37.80;;;;;;5041274;28;20053;-47
2021/10/17 05:01:50;;;;;;;1.33;0.45;;;25.20;37.80;;;;;;5024654;28;20045;-46
2021/10/17 05:04:18;;;;;;;1.52;0.70;;;25.20;37.80;;;;;;5025460;28;20116;-46
2021/10/17 05:06:45;;;;;;;3.15;0.57;;;25.20;37.80;;;;;;5025392;28;20048;-46
2021/10/17 05:09:12;;;;;;;1.85;0.40;;;25.20;37.80;;;;;;5028240;28;20073;-49
2021/10/17 05:11:39;;;;;;;1.70;0.43;;;25.20;37.80;;;;;;5008670;28;20502;-47
2021/10/17 05:14:06;;;;;;;0.60;0.60;;;25.20;37.80;;;;;;5026320;28;20124;-46
2021/10/17 05:16:34;;;;;;;1.10;0.60;;;25.20;37.80;;;;;;5024707;28;20073;-49
2021/10/17 05:19:02;;;;;;;0.70;0.52;;;25.10;37.80;;;;;;5025194;28;20064;-49
2021/10/17 05:21:32;;;;;;;1.27;0.95;;;25.10;37.80;;;;;;5039779;28;20049;-46
2021/10/17 05:24:00;;;;;;;0.90;0.47;;;25.10;37.80;;;;;;5026272;28;20128;-46
2021/10/17 05:26:27;;;;;;;3.70;0.40;;;25.10;37.80;;;;;;5024807;28;20607;-46
2021/10/17 05:28:54;;;;;;;1.60;0.68;;;25.10;37.80;;;;;;5026107;28;20133;-46
2021/10/17 05:31:21;;;;;;;2.28;0.50;;;25.00;37.90;;;;;;5024617;28;20049;-47
2021/10/17 05:33:48;;;;;;;0.85;0.40;;;25.00;37.90;;;;;;5024011;28;20053;-44
2021/10/17 05:36:17;;;;;;;0.85;0.50;;;25.10;38.00;;;;;;5026616;28;20041;-50
2021/10/17 05:38:47;;;;;;;0.65;0.45;;;25.00;37.90;;;;;;5025531;28;20514;-47
2021/10/17 05:41:14;;;;;;;4.03;0.65;;;25.10;38.00;;;;;;5025815;28;20041;-45
2021/10/17 05:43:42;;;;;;;3.60;0.68;;;25.00;38.00;;;;;;5024735;28;20041;-47
2021/10/17 05:46:10;;;;;;;1.60;0.40;;;25.00;38.00;;;;;;5024473;28;20046;-46
2021/10/17 05:48:37;;;;;;;3.20;0.47;;;25.00;38.00;;;;;;5024257;28;20046;-48
2021/10/17 05:51:04;;;;;;;0.75;0.40;;;25.00;38.00;;;;;;5010938;28;20525;-47
2021/10/17 05:53:34;;;;;;;2.08;0.63;;;25.00;38.10;;;;;;5023945;28;20053;-46
2021/10/17 05:56:02;;;;;;;1.48;0.52;;;25.00;38.10;;;;;;5023910;28;20057;-46
2021/10/17 05:58:29;;;;;;;0.50;0.30;;;25.00;38.10;;;;;;5024387;28;20669;-46
2021/10/17 06:00:57;;;;;;;1.50;0.60;;;25.00;38.10;;;;;;5043406;28;20412;-46
2021/10/17 06:03:26;;;;;;;1.27;0.88;;;24.90;38.20;;;;;;5040087;28;20052;-50
2021/10/17 06:06:13;;;;;;;2.85;0.68;;;24.90;38.20;;;;;;5045513;28;20516;-49
2021/10/17 06:08:44;;;;;;;10.70;0.90;;;24.90;38.30;;;;;;5050332;28;20041;-42
2021/10/17 06:11:13;;;;;;;5.00;0.80;;;24.90;38.60;;;;;;5052219;28;20072;-42
2021/10/17 06:13:40;;;;;;;1.75;0.43;;;24.80;38.80;;;;;;5046358;28;20036;-42
2021/10/17 06:16:07;;;;;;;3.30;0.32;;;24.60;38.90;;;;;;5046444;28;20067;-42
2021/10/17 06:18:34;;;;;;;4.95;0.50;;;24.50;39.20;;;;;;5046671;28;20517;-42
2021/10/17 06:21:02;;;;;;;2.45;0.45;;;24.40;39.40;;;;;;5036870;28;20409;-41
2021/10/17 06:23:29;;;;;;;3.45;0.50;;;24.20;39.60;;;;;;5045581;28;20525;-41
2021/10/17 06:25:58;;;;;;;2.60;0.38;;;24.00;39.80;;;;;;5046315;28;20044;-42
2021/10/17 06:28:25;;;;;;;7.63;0.43;;;23.90;40.10;;;;;;5047246;28;20033;-42
2021/10/17 06:30:52;;;;;;;4.22;0.73;;;23.80;40.20;;;;;;5046159;28;20043;-42
2021/10/17 06:33:19;;;;;;;6.72;0.30;;;23.70;40.40;;;;;;5047905;28;20048;-42
2021/10/17 06:35:47;;;;;;;3.97;0.70;;;23.50;40.60;;;;;;5023813;28;20046;-42
2021/10/17 06:38:14;;;;;;;1.40;0.25;;;23.40;40.70;;;;;;5046184;28;20513;-41
2021/10/17 06:40:41;;;;;;;1.30;0.40;;;23.30;40.90;;;;;;5050977;28;20531;-42
2021/10/17 06:43:11;;;;;;;2.40;0.50;;;23.20;41.00;;;;;;5030167;28;20056;-49
2021/10/17 06:46:08;;;;;;;0.20;0.15;;;23.20;41.10;;;;;;5026820;28;20053;-43
2021/10/17 06:48:36;;;;;;;2.25;0.75;;;23.00;41.30;;;;;;5044942;28;20045;-41
2021/10/17 06:51:03;;;;;;;0.88;0.38;;;22.90;41.40;;;;;;5047706;28;20509;-42
2021/10/17 06:53:30;;;;;;;3.05;0.85;;;22.80;41.50;;;;;;5033182;28;20049;-45
2021/10/17 06:55:58;;;;;;;0.40;0.22;;;22.70;41.60;;;;;;5042535;28;20064;-41
2021/10/17 06:58:28;;;;;;;1.65;0.70;;;22.70;41.80;;;;;;5026686;28;20047;-41
2021/10/17 07:00:55;;;;;;;1.05;0.30;;;22.60;42.00;;;;;;5026738;28;20044;-42
2021/10/17 07:03:22;;;;;;;0.70;0.63;;;22.50;42.00;;;;;;5031353;28;20107;-42
2021/10/17 07:06:18;;;;;;;1.20;0.55;;;22.50;42.20;;;;;;5035922;28;20057;-43
2021/10/17 07:08:53;;;;;;;1.77;0.30;;;22.40;42.30;;;;;;5032182;28;20057;-41
2021/10/17 07:11:26;;;;;;;1.55;0.45;;;22.40;42.50;;;;;;5031180;28;20053;-42
2021/10/17 07:13:59;;;;;;;0.57;0.30;;;22.30;42.50;;;;;;5030912;28;20570;-40
2021/10/17 07:16:33;;;;;;;2.63;0.68;;;22.30;42.70;;;;;;5030592;28;20052;-41
2021/10/17 07:19:01;;;;;;;1.33;0.73;;;22.20;42.80;;;;;;5030136;28;20037;-40
2021/10/17 07:21:28;;;;;;;1.13;0.40;;;22.20;42.80;;;;;;5030642;28;20041;-41
2021/10/17 07:23:56;;;;;;;0.47;0.20;;;22.10;42.90;;;;;;5054535;28;20111;-41
2021/10/17 07:26:24;;;;;;;3.53;0.75;;;22.10;43.00;;;;;;5054586;28;20044;-42
2021/10/17 07:28:51;;;;;;;0.60;0.55;;;22.00;43.00;;;;;;5051236;28;20029;-41
2021/10/17 07:31:19;;;;;;;2.50;0.25;;;22.00;43.10;;;;;;5036219;28;20829;-41
2021/10/17 07:33:55;;;;;;;2.40;0.35;;;22.00;43.20;;;;;;5030622;28;20073;-41
2021/10/17 07:36:23;;;;;;;0.50;0.30;;;22.00;43.20;;;;;;5052905;28;20056;-41
2021/10/17 07:38:57;;;;;;;0.82;0.20;;;22.00;43.30;;;;;;5034891;28;20045;-42
2021/10/17 07:41:26;;;;;;;1.00;0.35;;;21.90;43.20;;;;;;5052480;28;20099;-41
2021/10/17 07:44:02;;;;;;;0.70;0.40;;;21.90;43.30;;;;;;5035725;28;20048;-44
2021/10/17 07:46:30;;;;;;;2.08;0.95;;;21.90;43.30;;;;;;5033274;28;20045;-40
2021/10/17 07:48:59;;;;;;;2.40;0.73;;;21.90;43.40;;;;;;5048042;28;20595;-41
2021/10/17 07:51:28;;;;;;;2.05;0.50;;;21.90;43.40;;;;;;5050689;28;20053;-41
2021/10/17 07:53:55;;;;;;;3.80;0.98;;;21.80;43.40;;;;;;5056216;28;20087;-41
2021/10/17 07:56:29;;;;;;;1.05;0.40;;;21.80;43.50;;;;;;5052089;28;20497;-41
2021/10/17 07:58:56;;;;;;;0.60;0.20;;;21.80;43.60;;;;;;5034650;28;20513;-41
2021/10/17 08:01:30;;;;;;;1.08;0.50;;;21.80;43.50;;;;;;5050549;28;20421;-41
2021/10/17 08:04:27;;;;;;;1.80;0.30;;;21.80;43.60;;;;;;5033767;28;20041;-41
2021/10/17 08:07:03;;;;;;;1.08;0.20;;;21.80;43.60;;;;;;5048705;28;20116;-41
2021/10/17 08:09:31;;;;;;;1.38;0.50;;;21.70;43.60;;;;;;5034221;28;20045;-42
2021/10/17 08:12:00;;;;;;;3.25;0.28;;;21.70;43.60;;;;;;5056251;28;20049;-43
2021/10/17 08:14:27;;;;;;;5.43;1.10;;;21.70;43.60;;;;;;5048976;28;20063;-60
2021/10/17 08:16:57;;;;;;;3.00;2.03;;;21.70;42.60;;;;;;5047413;28;20501;-53
2021/10/17 08:19:43;;;;;;;7.35;1.85;;;21.80;40.90;;;;;;5047037;28;20429;-54
2021/10/17 08:22:13;;;;;;;3.17;1.80;;;21.80;39.70;;;;;;5033767;28;20037;-54
2021/10/17 08:24:40;;;;;;;5.03;2.72;;;21.80;39.10;;;;;;5034938;28;20614;-51
2021/10/17 08:27:08;;;;;;;11.43;2.05;;;21.90;38.70;;;;;;5033510;28;20099;-51
2021/10/17 08:29:36;;;;;;;2.65;2.40;;;21.90;38.40;;;;;;5026270;28;20041;-57
2021/10/17 08:32:05;;;;;;;5.68;2.53;;;21.90;38.10;;;;;;5034304;28;20037;-59
2021/10/17 08:34:37;;;;;;;3.88;2.10;;;21.90;37.90;;;;;;5032055;28;20140;-59
2021/10/17 08:37:06;;;;;;;2.97;1.80;;;22.00;37.80;;;;;;5033240;28;20056;-57
2021/10/17 08:39:51;;;;;;;2.63;1.63;;;22.00;37.60;;;;;;5041392;28;20063;-55
2021/10/17 08:42:23;;;;;;;6.18;1.63;;;21.90;37.30;;;;;;5050086;28;20459;-59
2021/10/17 08:44:55;;;;;;;3.55;1.90;;;21.90;37.40;;;;;;5045136;28;20068;-60
2021/10/17 08:47:26;;;;;;;4.32;1.80;;;22.00;37.30;;;;;;5030885;28;20557;-60
2021/10/17 08:49:55;;;;;;;4.22;2.00;;;22.00;37.00;;;;;;5024920;28;20064;-60
2021/10/17 08:52:24;;;;;;;5.00;1.73;;;22.00;36.80;;;;;;5031103;28;20037;-58
2021/10/17 08:54:56;;;;;;;2.55;1.25;;;22.00;36.70;;;;;;5046693;28;20528;-60
2021/10/17 08:57:23;;;;;;;4.20;1.73;;;22.00;36.50;;;;;;5047909;28;20052;-61
2021/10/17 08:59:52;;;;;;;2.45;1.65;;;22.00;36.40;;;;;;5046410;28;20060;-56
2021/10/17 09:02:24;;;;;;;2.50;2.20;;;22.10;36.40;;;;;;5031531;28;20033;-53
2021/10/17 09:05:01;;;;;;;4.55;1.45;;;22.10;36.20;;;;;;5048916;28;20687;-57
2021/10/17 09:07:38;;;;;;;5.38;1.45;;;22.10;36.10;;;;;;5022679;28;20037;-54
2021/10/17 09:10:18;;;;;;;6.65;1.58;;;22.10;36.10;;;;;;5027126;28;20049;-40
2021/10/17 09:12:47;;;;;;;36.20;2.20;;;22.10;35.90;;;;;;5047778;28;20033;-41
2021/10/17 09:15:22;;;;;;;10.55;1.60;;;22.00;36.80;;;;;;5046756;28;20133;-47
2021/10/17 09:18:14;;;;;;;8.80;1.27;;;22.00;37.60;;;;;;5046314;28;20096;-44
2021/10/17 09:20:57;;;;;;;9.50;1.85;;;22.00;38.10;;;;;;5045833;28;20119;-46
2021/10/17 09:23:40;;;;;;;17.98;1.77;;;21.90;38.40;;;;;;5046174;28;20052;-46
2021/10/17 09:26:20;;;;;;;3.47;0.98;;;21.90;38.70;;;;;;5045884;28;20616;-46
2021/10/17 09:28:50;;;;;;;7.55;1.35;;;21.80;38.90;;;;;;5046892;28;20447;-45
2021/10/17 09:31:18;;;;;;;11.73;1.95;;;21.80;39.00;;;;;;5040855;28;20477;-47
2021/10/17 09:33:49;;;;;;;4.97;1.05;;;21.80;39.20;;;;;;5046599;28;20045;-44
2021/10/17 09:36:29;;;;;;;6.80;0.90;;;21.80;39.30;;;;;;5042747;28;20103;-45
2021/10/17 09:39:33;;;;;;;4.93;1.15;;;21.80;39.40;;;;;;5046603;28;20055;-47
2021/10/17 09:42:20;;;;;;;7.72;1.38;;;21.80;39.50;;;;;;5044681;28;20040;-45
2021/10/17 09:44:51;;;;;;;5.95;0.65;;;21.80;39.60;;;;;;5050663;28;20040;-48
2021/10/17 09:47:18;;;;;;;6.85;0.75;;;21.80;39.70;;;;;;5047038;28;20048;-45
2021/10/17 09:49:52;;;;;;;3.63;0.75;;;21.80;39.70;;;;;;5046791;28;20172;-45
2021/10/17 09:52:23;;;;;;;7.82;1.38;;;21.70;39.70;;;;;;5046211;28;20144;-47
2021/10/17 09:54:51;;;;;;;3.38;0.40;;;21.80;39.90;;;;;;5044501;28;20041;-47
2021/10/17 09:57:19;;;;;;;5.93;0.88;;;21.80;39.90;;;;;;5048478;28;20044;-49
2021/10/17 09:59:47;;;;;;;2.65;1.33;;;21.80;39.90;;;;;;5046752;28;20045;-47
2021/10/17 10:02:15;;;;;;;0.70;0.40;;;21.80;40.00;;;;;;5046597;28;20044;-48
2021/10/17 10:04:45;;;;;;;3.40;1.15;;;21.80;40.00;;;;;;5046442;28;20049;-46
2021/10/17 10:07:21;;;;;;;7.03;1.92;;;21.80;40.00;;;;;;5046099;28;20102;-46
2021/10/17 10:09:48;;;;;;;;;;;21.90;40.10;;;;;;5046907;28;20037;-45
2021/10/17 10:12:18;;;;;;;1.20;0.55;;;21.80;40.00;;;;;;5048153;28;19921;-47
2021/10/17 10:14:46;;;;;;;2.78;0.80;;;21.80;40.10;;;;;;5046649;28;20120;-45
2021/10/17 10:17:16;;;;;;;0.77;0.52;;;21.80;40.10;;;;;;5046187;28;20508;-47
2021/10/17 10:19:44;;;;;;;2.70;0.40;;;21.80;40.20;;;;;;5045943;28;20408;-48
2021/10/17 10:22:13;;;;;;;2.90;0.93;;;21.90;40.30;;;;;;5046506;28;20049;-46
2021/10/17 10:24:40;;;;;;;2.85;0.40;;;21.90;40.30;;;;;;5046353;28;20124;-46
2021/10/17 10:27:08;;;;;;;0.95;0.30;;;21.90;40.30;;;;;;5047821;28;20037;-47
2021/10/17 10:29:36;;;;;;;0.57;0.22;;;21.90;40.30;;;;;;5045795;28;20726;-47
2021/10/17 10:32:08;;;;;;;0.80;0.40;;;21.90;40.30;;;;;;5046223;28;20087;-48
2021/10/17 10:35:03;;;;;;;1.90;0.20;;;22.00;40.30;;;;;;5046113;28;20131;-46
2021/10/17 10:37:33;;;;;;;0.90;0.30;;;22.00;40.20;;;;;;5045561;28;20132;-50
2021/10/17 10:40:15;;;;;;;2.38;0.38;;;22.00;40.30;;;;;;5050328;28;20497;-45
2021/10/17 10:42:45;;;;;;;1.75;0.63;;;22.00;40.30;;;;;;5050150;28;20128;-45
2021/10/17 10:45:34;;;;;;;1.95;0.28;;;22.00;40.30;;;;;;5051608;28;20041;-45
2021/10/17 10:48:19;;;;;;;0.70;0.30;;;22.00;40.30;;;;;;5046189;28;20160;-45
2021/10/17 10:50:48;;;;;;;1.27;0.80;;;22.10;40.30;;;;;;5050397;28;20045;-47
2021/10/17 10:53:51;;;;;;;0.93;0.30;;;22.10;40.30;;;;;;5050416;28;20041;-47
2021/10/17 10:56:41;;;;;;;3.42;0.60;;;22.10;40.20;;;;;;5050744;28;20053;-45
2021/10/17 10:59:08;;;;;;;1.60;0.20;;;22.20;40.20;;;;;;5050345;28;20045;-45
2021/10/17 11:01:58;;;;;;;1.48;0.30;;;22.10;40.20;;;;;;5050216;28;20068;-46
2021/10/17 11:04:59;;;;;;;2.10;0.20;;;22.20;40.20;;;;;;5040478;28;20536;-44
2021/10/17 11:07:40;;;;;;;1.50;0.65;;;22.20;40.20;;;;;;5050207;28;20041;-47
2021/10/17 11:10:37;;;;;;;1.85;0.52;;;22.20;40.20;;;;;;5050233;28;20037;-45
2021/10/17 11:13:07;;;;;;;1.08;0.30;;;22.30;40.20;;;;;;5048182;28;20062;-46
2021/10/17 11:15:37;;;;;;;0.30;0.20;;;22.20;40.20;;;;;;5049856;28;20072;-49
2021/10/17 11:18:07;;;;;;;1.17;0.20;;;22.30;40.20;;;;;;5049902;28;20480;-45
2021/10/17 11:20:36;;;;;;;0.43;0.22;;;22.30;40.10;;;;;;5049643;28;20045;-44
2021/10/17 11:23:04;;;;;;;0.50;0.38;;;22.30;40.10;;;;;;5049728;28;20064;-45
2021/10/17 11:25:32;;;;;;;2.78;0.40;;;22.40;40.10;;;;;;5049721;28;20098;-45
2021/10/17 11:28:01;;;;;;;1.33;0.30;;;22.40;40.00;;;;;;5049694;28;20037;-50
2021/10/17 11:30:31;;;;;;;0.77;0.35;;;22.50;40.00;;;;;;5048993;28;20056;-46
2021/10/17 11:32:59;;;;;;;1.45;0.20;;;22.50;39.90;;;;;;5050714;28;20045;-46
2021/10/17 11:35:28;;;;;;;0.50;0.20;;;22.50;39.90;;;;;;5049621;28;20048;-45
2021/10/17 11:37:56;;;;;;;0.30;0.30;;;22.60;40.00;;;;;;5048374;28;20040;-45
2021/10/17 11:40:24;;;;;;;1.02;0.45;;;22.60;39.90;;;;;;5049656;28;20044;-45
2021/10/17 11:42:53;;;;;;;0.20;0.20;;;22.60;39.80;;;;;;5049709;28;20132;-50
2021/10/17 11:45:27;;;;;;;0.25;0.20;;;22.60;39.80;;;;;;5050021;28;20048;-46
2021/10/17 11:47:56;;;;;;;0.98;0.38;;;22.60;39.70;;;;;;5048631;28;20045;-46
2021/10/17 11:50:25;;;;;;;0.95;0.20;;;22.70;39.80;;;;;;5049325;28;20048;-47
2021/10/17 11:52:55;;;;;;;0.40;0.40;;;22.70;39.80;;;;;;5048115;28;20041;-46
2021/10/17 11:55:34;;;;;;;1.48;0.40;;;22.70;39.80;;;;;;5042509;28;20048;-47
2021/10/17 11:58:02;;;;;;;1.58;0.38;;;22.80;39.80;;;;;;5048752;28;20037;-46
2021/10/17 12:00:32;;;;;;;0.80;0.15;;;22.80;39.80;;;;;;5048677;28;20053;-48
2021/10/17 12:03:00;;;;;;;0.28;0.20;;;22.80;39.80;;;;;;5049839;28;20041;-48
2021/10/17 12:05:29;;;;;;;2.95;0.20;;;22.80;39.80;;;;;;5048664;28;20060;-46
2021/10/17 12:07:58;;;;;;;0.93;0.20;;;22.80;39.70;;;;;;5048649;28;20049;-49
2021/10/17 12:10:27;;;;;;;0.32;0.20;;;22.80;39.60;;;;;;5048481;28;20106;-46
2021/10/17 12:12:59;;;;;;;0.95;0.35;;;22.90;39.60;;;;;;5048782;28;20037;-48
2021/10/17 12:15:27;;;;;;;3.30;0.35;;;22.90;39.70;;;;;;5048881;28;20045;-47
2021/10/17 12:18:01;;;;;;;0.30;0.30;;;23.00;39.80;;;;;;5048983;28;20052;-47
2021/10/17 12:20:31;;;;;;;0.57;0.50;;;23.00;39.80;;;;;;5048577;28;20041;-47
2021/10/17 12:22:59;;;;;;;1.23;0.40;;;23.00;39.80;;;;;;5049123;28;20037;-47
2021/10/17 12:25:49;;;;;;;1.02;0.10;;;23.00;39.80;;;;;;4989726;28;20049;-46
2021/10/17 12:28:17;;;;;;;0.20;0.20;;;23.00;39.70;;;;;;4986707;28;20046;-44
2021/10/17 12:30:50;;;;;;;0.40;0.20;;;23.10;39.70;;;;;;4992177;28;20545;-46
2021/10/17 12:33:33;;;;;;;0.35;0.25;;;23.10;39.70;;;;;;4992247;28;20054;-47
2021/10/17 12:36:01;;;;;;;1.23;0.10;;;23.20;39.70;;;;;;4991431;28;20042;-45
2021/10/17 12:38:34;;;;;;;0.57;0.20;;;23.20;39.70;;;;;;4986816;28;20064;-45
2021/10/17 12:41:03;;;;;;;2.38;0.20;;;23.20;39.60;;;;;;4990452;28;20038;-46
2021/10/17 12:43:32;;;;;;;1.65;0.30;;;23.10;39.50;;;;;;4986838;28;20061;-47
2021/10/17 12:46:11;;;;;;;0.88;0.20;;;23.20;39.50;;;;;;4990264;28;20048;-45
2021/10/17 12:48:43;;;;;;;0.63;0.52;;;23.20;39.60;;;;;;4988295;28;20507;-47
2021/10/17 12:51:33;;;;;;;0.55;0.20;;;23.20;39.60;;;;;;4990518;28;20082;-47
2021/10/17 12:54:09;;;;;;;0.68;0.28;;;23.30;39.60;;;;;;4992260;28;20038;-47
2021/10/17 12:56:38;;;;;;;0.65;0.10;;;23.30;39.60;;;;;;4990207;28;20054;-49
2021/10/17 12:59:07;;;;;;;0.10;0.10;;;23.30;39.60;;;;;;4988344;28;20049;-45
2021/10/17 13:01:34;;;;;;;0.10;0.10;;;23.30;39.60;;;;;;4990484;28;20038;-48
2021/10/17 13:04:13;;;;;;;0.80;0.30;;;23.30;39.60;;;;;;5044438;28;20064;-46
2021/10/17 13:06:51;;;;;;;0.70;0.40;;;23.40;39.60;;;;;;5047725;28;20045;-48